createdAt,value
2023-06-18T00:00:14.051Z,17.94
2023-06-18T00:02:41.143Z,17.90
2023-06-18T00:05:08.751Z,18.74
2023-06-18T00:07:35.900Z,19.65
2023-06-18T00:10:04.702Z,20.27
2023-06-18T00:12:31.627Z,20.73
2023-06-18T00:14:58.969Z,21.07
2023-06-18T00:17:26.897Z,21.36
2023-06-18T00:19:53.925Z,21.55
2023-06-18T00:22:23.117Z,21.75
2023-06-18T00:24:54.554Z,21.75
2023-06-18T00:27:28.032Z,20.99
2023-06-18T00:30:08.786Z,20.16
2023-06-18T00:32:50.428Z,19.48
2023-06-18T00:35:24.108Z,18.93
2023-06-18T00:37:51.342Z,18.47
2023-06-18T00:40:18.690Z,18.25
2023-06-18T00:42:46.246Z,18.95
2023-06-18T00:45:13.915Z,19.77
2023-06-18T00:47:45.951Z,20.38
2023-06-18T00:50:20.093Z,20.82
2023-06-18T00:52:49.436Z,21.14
2023-06-18T00:55:22.259Z,21.39
2023-06-18T00:58:01.040Z,21.37
2023-06-18T01:00:30.076Z,20.50
2023-06-18T01:02:58.161Z,19.57
2023-06-18T01:05:26.683Z,18.82
2023-06-18T01:07:54.383Z,18.31
2023-06-18T01:10:22.726Z,17.93
2023-06-18T01:12:50.653Z,17.79
2023-06-18T01:15:19.775Z,18.52
2023-06-18T01:17:50.055Z,19.33
2023-06-18T01:20:20.293Z,19.88
2023-06-18T01:22:50.164Z,20.25
2023-06-18T01:25:19.621Z,20.50
2023-06-18T01:27:48.088Z,20.66
2023-06-18T01:30:16.290Z,20.83
2023-06-18T01:32:43.513Z,21.06
2023-06-18T01:35:17.584Z,21.29
2023-06-18T01:38:03.359Z,21.28
2023-06-18T01:40:35.930Z,20.36
2023-06-18T01:43:44.247Z,19.52
2023-06-18T01:46:15.173Z,18.73
2023-06-18T01:48:53.893Z,18.27
2023-06-18T01:51:22.283Z,17.83
2023-06-18T01:53:52.800Z,17.71
2023-06-18T01:56:21.053Z,18.49
2023-06-18T01:58:48.545Z,19.33
2023-06-18T02:01:16.085Z,19.92
2023-06-18T02:03:43.554Z,20.34
2023-06-18T02:06:11.127Z,20.65
2023-06-18T02:08:38.147Z,20.84
2023-06-18T02:11:05.330Z,20.92
2023-06-18T02:13:32.386Z,20.96
2023-06-18T02:15:59.513Z,21.05
2023-06-18T02:18:26.937Z,20.96
2023-06-18T02:20:54.244Z,20.13
2023-06-18T02:23:21.335Z,19.24
2023-06-18T02:25:49.492Z,18.53
2023-06-18T02:28:17.163Z,18.03
2023-06-18T02:30:44.736Z,17.85
2023-06-18T02:33:12.414Z,18.62
2023-06-18T02:35:39.575Z,19.47
2023-06-18T02:38:06.684Z,20.03
2023-06-18T02:40:33.852Z,20.37
2023-06-18T02:43:00.769Z,20.64
2023-06-18T02:45:27.815Z,20.80
2023-06-18T02:47:55.211Z,20.93
2023-06-18T02:50:22.818Z,21.07
2023-06-18T02:52:50.223Z,21.25
2023-06-18T02:55:17.765Z,21.43
2023-06-18T02:57:45.306Z,21.34
2023-06-18T03:00:14.419Z,20.44
2023-06-18T03:02:42.847Z,19.53
2023-06-18T03:05:11.010Z,18.83
2023-06-18T03:07:38.607Z,18.27
2023-06-18T03:10:07.073Z,18.02
2023-06-18T03:12:34.134Z,18.74
2023-06-18T03:15:01.071Z,19.59
2023-06-18T03:17:29.284Z,20.13
2023-06-18T03:19:56.385Z,20.46
2023-06-18T03:22:23.537Z,20.71
2023-06-18T03:24:51.150Z,20.92
2023-06-18T03:27:18.237Z,21.10
2023-06-18T03:29:45.794Z,21.32
2023-06-18T03:32:12.863Z,21.31
2023-06-18T03:34:43.972Z,20.42
2023-06-18T03:37:11.031Z,19.34
2023-06-18T03:39:38.173Z,18.54
2023-06-18T03:42:06.115Z,17.95
2023-06-18T03:44:33.004Z,17.73
2023-06-18T03:47:00.663Z,18.50
2023-06-18T03:49:27.590Z,19.32
2023-06-18T03:51:54.615Z,19.90
2023-06-18T03:54:21.904Z,20.30
2023-06-18T03:56:49.139Z,20.60
2023-06-18T03:59:16.055Z,20.86
2023-06-18T04:01:43.882Z,21.07
2023-06-18T04:04:10.793Z,21.20
2023-06-18T04:06:37.722Z,21.26
2023-06-18T04:09:04.971Z,21.28
2023-06-18T04:11:32.021Z,21.33
2023-06-18T04:13:59.886Z,21.47
2023-06-18T04:16:27.057Z,21.59
2023-06-18T04:18:54.321Z,21.45
2023-06-18T04:21:21.330Z,20.59
2023-06-18T04:23:48.267Z,19.76
2023-06-18T04:26:15.409Z,19.07
2023-06-18T04:28:42.355Z,18.55
2023-06-18T04:31:09.405Z,18.26
2023-06-18T04:33:36.452Z,18.92
2023-06-18T04:36:04.017Z,19.68
2023-06-18T04:38:31.057Z,20.23
2023-06-18T04:40:58.143Z,20.70
2023-06-18T04:43:25.372Z,21.02
2023-06-18T04:45:53.719Z,21.23
2023-06-18T04:48:21.226Z,21.39
2023-06-18T04:50:48.217Z,21.46
2023-06-18T04:53:15.370Z,21.34
2023-06-18T04:55:43.000Z,20.50
2023-06-18T04:58:09.864Z,19.61
2023-06-18T05:00:36.820Z,18.89
2023-06-18T05:03:05.991Z,18.34
2023-06-18T05:05:34.182Z,18.10
2023-06-18T05:08:01.221Z,18.83
2023-06-18T05:10:33.603Z,19.77
2023-06-18T05:13:05.099Z,20.48
2023-06-18T05:15:38.868Z,21.01
2023-06-18T05:18:10.377Z,21.41
2023-06-18T05:20:37.686Z,21.51
2023-06-18T05:23:04.684Z,20.79
2023-06-18T05:25:31.740Z,20.09
2023-06-18T05:27:58.917Z,19.65
2023-06-18T05:30:26.092Z,19.29
2023-06-18T05:32:53.407Z,19.04
2023-06-18T05:35:20.336Z,19.19
2023-06-18T05:37:47.177Z,20.30
2023-06-18T05:40:14.218Z,21.42
2023-06-18T05:42:41.378Z,22.26
2023-06-18T05:45:09.487Z,22.88
2023-06-18T05:47:36.746Z,23.16
2023-06-18T05:50:04.135Z,22.69
2023-06-18T05:52:31.327Z,22.15
2023-06-18T05:54:58.554Z,21.71
2023-06-18T05:57:25.725Z,21.33
2023-06-18T05:59:52.874Z,21.02
2023-06-18T06:02:19.886Z,20.79
2023-06-18T06:04:47.183Z,20.63
2023-06-18T06:07:14.278Z,20.59
2023-06-18T06:09:41.630Z,20.62
2023-06-18T06:12:09.576Z,20.69
2023-06-18T06:14:36.550Z,20.79
2023-06-18T06:17:03.996Z,20.92
2023-06-18T06:19:31.080Z,20.99
2023-06-18T06:21:58.318Z,21.09
2023-06-18T06:24:25.185Z,21.20
2023-06-18T06:26:52.751Z,21.37
2023-06-18T06:29:19.633Z,21.55
2023-06-18T06:31:46.679Z,21.72
2023-06-18T06:34:13.966Z,21.98
2023-06-18T06:36:41.378Z,22.22
2023-06-18T06:39:08.524Z,22.33
2023-06-18T06:41:35.984Z,22.32
2023-06-18T06:44:06.995Z,22.38
2023-06-18T06:46:34.118Z,22.43
2023-06-18T06:49:01.416Z,22.46
2023-06-18T06:51:28.368Z,22.46
2023-06-18T06:53:55.618Z,22.56
2023-06-18T06:56:22.917Z,22.67
2023-06-18T06:58:51.418Z,22.78
2023-06-18T07:01:23.178Z,22.92
2023-06-18T07:03:50.602Z,23.02
2023-06-18T07:06:17.808Z,23.17
2023-06-18T07:08:45.154Z,23.37
2023-06-18T07:11:12.674Z,23.49
2023-06-18T07:13:40.261Z,23.64
2023-06-18T07:16:07.406Z,23.84
2023-06-18T07:18:34.590Z,23.94
2023-06-18T07:21:02.158Z,23.91
2023-06-18T07:23:29.332Z,24.03
2023-06-18T07:25:56.725Z,24.26
2023-06-18T07:28:24.086Z,24.45
2023-06-18T07:30:51.071Z,24.60
2023-06-18T07:33:18.073Z,24.79
2023-06-18T07:35:45.119Z,24.97
2023-06-18T07:38:12.190Z,25.15
2023-06-18T07:40:40.237Z,25.37
2023-06-18T07:43:07.271Z,25.55
2023-06-18T07:45:35.361Z,25.64
2023-06-18T07:48:02.943Z,25.70
2023-06-18T07:50:30.194Z,25.69
2023-06-18T07:52:57.308Z,25.61
2023-06-18T07:55:24.625Z,25.46
2023-06-18T07:57:51.963Z,25.41
2023-06-18T08:00:19.778Z,25.55
2023-06-18T08:02:47.787Z,25.87
2023-06-18T08:05:14.862Z,26.17
2023-06-18T08:07:41.966Z,26.30
2023-06-18T08:10:10.031Z,26.32
2023-06-18T08:12:37.283Z,26.26
2023-06-18T08:15:04.802Z,26.16
2023-06-18T08:17:31.799Z,26.17
2023-06-18T08:19:58.685Z,26.21
2023-06-18T08:22:27.558Z,26.20
2023-06-18T08:24:54.756Z,26.35
2023-06-18T08:27:22.071Z,26.59
2023-06-18T08:29:49.156Z,26.72
2023-06-18T08:32:16.377Z,26.83
2023-06-18T08:34:47.980Z,26.84
2023-06-18T08:37:15.245Z,26.73
2023-06-18T08:39:42.355Z,26.60
2023-06-18T08:42:10.400Z,26.43
2023-06-18T08:44:37.802Z,26.19
2023-06-18T08:47:05.885Z,25.94
2023-06-18T08:49:34.034Z,25.71
2023-06-18T08:52:04.071Z,25.59
2023-06-18T08:54:35.712Z,25.69
2023-06-18T08:57:29.152Z,25.99
2023-06-18T08:59:58.877Z,26.25
2023-06-18T09:02:27.460Z,26.18
2023-06-18T09:04:55.597Z,26.10
2023-06-18T09:07:26.173Z,26.10
2023-06-18T09:09:53.655Z,26.30
2023-06-18T09:12:21.234Z,26.65
2023-06-18T09:14:48.612Z,26.98
2023-06-18T09:17:17.606Z,27.23
2023-06-18T09:19:45.426Z,27.44
2023-06-18T09:22:18.064Z,27.53
2023-06-18T09:24:45.715Z,27.47
2023-06-18T09:27:13.162Z,27.28
2023-06-18T09:29:42.853Z,27.33
2023-06-18T09:32:15.713Z,27.60
2023-06-18T09:34:44.756Z,27.93
2023-06-18T09:37:15.537Z,28.21
2023-06-18T09:39:42.486Z,28.55
2023-06-18T09:42:12.828Z,28.87
2023-06-18T09:44:41.014Z,29.06
2023-06-18T09:47:13.978Z,29.11
2023-06-18T09:49:44.100Z,29.26
2023-06-18T09:52:11.742Z,29.47
2023-06-18T09:54:41.312Z,29.55
2023-06-18T09:57:10.259Z,29.68
2023-06-18T09:59:38.407Z,29.68
2023-06-18T10:02:14.489Z,29.46
2023-06-18T10:04:41.957Z,29.11
2023-06-18T10:07:18.187Z,28.76
2023-06-18T10:09:47.672Z,28.39
2023-06-18T10:12:19.389Z,28.20
2023-06-18T10:14:47.849Z,28.30
2023-06-18T10:17:33.108Z,28.50
2023-06-18T10:20:10.844Z,28.68
2023-06-18T15:08:42.547Z,25.77
2023-06-18T15:11:09.693Z,25.85
2023-06-18T15:13:36.740Z,25.91
2023-06-18T15:16:04.296Z,25.91
2023-06-18T15:18:42.091Z,25.89
2023-06-18T15:21:09.409Z,25.82
2023-06-18T15:23:36.496Z,25.71
2023-06-18T15:26:03.764Z,25.55
2023-06-18T15:28:30.919Z,25.47
2023-06-18T15:30:58.049Z,25.37
2023-06-18T15:33:25.383Z,25.32
2023-06-18T15:35:54.715Z,25.29
2023-06-18T15:38:23.082Z,25.20
2023-06-18T15:40:50.003Z,25.16
2023-06-18T15:43:17.872Z,25.12
2023-06-18T15:45:45.438Z,25.00
2023-06-18T15:48:17.332Z,24.85
2023-06-18T15:50:44.570Z,24.74
2023-06-18T15:53:19.126Z,24.68
2023-06-18T15:55:48.981Z,24.64
2023-06-18T15:58:18.224Z,24.62
2023-06-18T16:00:46.180Z,24.62
2023-06-18T16:03:13.636Z,24.63
2023-06-18T16:05:41.221Z,24.69
2023-06-18T16:08:09.701Z,24.75
2023-06-18T16:10:38.550Z,24.77
2023-06-18T16:13:07.445Z,24.81
2023-06-18T16:15:35.213Z,24.83
2023-06-18T16:18:06.841Z,24.86
2023-06-18T16:20:34.927Z,24.93
2023-06-18T16:23:02.994Z,25.02
2023-06-18T16:25:30.694Z,25.11
2023-06-18T16:28:01.975Z,25.19
2023-06-18T16:30:30.321Z,25.24
2023-06-18T16:33:00.264Z,25.28
2023-06-18T16:35:32.503Z,25.31
2023-06-18T16:38:01.399Z,25.29
2023-06-18T16:40:28.802Z,25.24
2023-06-18T16:42:56.115Z,25.22
2023-06-18T16:45:23.796Z,25.20
2023-06-18T16:47:51.433Z,25.19
2023-06-18T16:50:19.080Z,25.13
2023-06-18T16:52:46.432Z,25.07
2023-06-18T16:55:13.688Z,25.00
2023-06-18T16:57:41.708Z,24.91
2023-06-18T17:00:09.499Z,24.77
2023-06-18T17:02:37.438Z,24.64
2023-06-18T17:05:06.046Z,24.51
2023-06-18T17:07:33.581Z,24.41
2023-06-18T17:10:01.215Z,24.35
2023-06-18T17:12:28.332Z,24.29
2023-06-18T17:15:01.269Z,24.22
2023-06-18T17:17:29.151Z,24.13
2023-06-18T17:19:56.531Z,24.07
2023-06-18T17:22:23.801Z,24.00
2023-06-18T17:24:51.202Z,23.92
2023-06-18T17:27:18.992Z,23.85
2023-06-18T17:29:47.078Z,23.80
2023-06-18T17:32:14.114Z,23.75
2023-06-18T17:34:41.365Z,23.70
2023-06-18T17:37:08.414Z,23.66
2023-06-18T17:39:35.354Z,23.61
2023-06-18T17:42:05.676Z,23.56
2023-06-18T17:44:33.131Z,23.52
2023-06-18T17:47:00.198Z,23.51
2023-06-18T17:49:27.636Z,23.47
2023-06-18T17:51:54.680Z,23.41
2023-06-18T17:54:21.973Z,23.35
2023-06-18T17:56:49.937Z,23.28
2023-06-18T17:59:17.251Z,23.21
2023-06-18T18:01:44.700Z,23.15
2023-06-18T18:04:12.564Z,23.07
2023-06-18T18:06:39.859Z,22.98
2023-06-18T18:09:07.266Z,22.92
2023-06-18T18:11:34.447Z,22.84
2023-06-18T18:14:01.673Z,22.76
2023-06-18T18:16:28.962Z,22.70
2023-06-18T18:18:57.873Z,22.63
2023-06-18T18:21:25.299Z,22.55
2023-06-18T18:23:52.998Z,22.49
2023-06-18T18:26:24.061Z,22.43
2023-06-18T18:28:56.530Z,22.38
2023-06-18T18:31:23.487Z,22.33
2023-06-18T18:33:50.585Z,22.29
2023-06-18T18:36:18.028Z,22.24
2023-06-18T18:38:45.374Z,22.21
2023-06-18T18:41:12.993Z,22.17
2023-06-18T18:43:40.401Z,22.13
2023-06-18T18:46:07.926Z,22.09
2023-06-18T18:48:35.149Z,22.06
2023-06-18T18:51:02.538Z,22.02
2023-06-18T18:53:29.652Z,21.98
2023-06-18T18:55:59.876Z,21.96
2023-06-18T18:58:30.457Z,21.94
2023-06-18T19:00:59.611Z,21.91
2023-06-18T19:03:27.593Z,21.88
2023-06-18T19:05:55.488Z,21.85
2023-06-18T19:08:23.247Z,21.83
2023-06-18T19:10:50.638Z,21.79
2023-06-18T19:13:18.048Z,21.76
2023-06-18T19:15:46.116Z,21.74
2023-06-18T19:18:13.622Z,21.71
2023-06-18T19:20:40.933Z,21.65
2023-06-18T19:23:07.923Z,21.61
2023-06-18T19:25:34.966Z,21.56
2023-06-18T19:28:02.420Z,21.51
2023-06-18T19:30:29.455Z,21.47
2023-06-18T19:32:56.856Z,21.43
2023-06-18T19:35:24.813Z,21.38
2023-06-18T19:37:52.023Z,21.33
2023-06-18T19:40:19.278Z,21.28
2023-06-18T19:42:49.613Z,21.23
2023-06-18T19:45:16.968Z,21.18
2023-06-18T19:47:45.184Z,21.14
2023-06-18T19:50:12.524Z,21.09
2023-06-18T19:52:39.935Z,21.06
2023-06-18T19:55:08.001Z,21.02
2023-06-18T19:57:34.971Z,21.00
2023-06-18T20:00:02.022Z,20.99
2023-06-18T20:02:29.185Z,20.98
2023-06-18T20:04:57.528Z,20.97
2023-06-18T20:07:24.539Z,20.97
2023-06-18T20:09:51.612Z,20.97
2023-06-18T20:12:19.493Z,20.96
2023-06-18T20:14:47.035Z,20.96
2023-06-18T20:17:13.974Z,20.95
2023-06-18T20:19:42.215Z,20.94
2023-06-18T20:22:10.692Z,20.92
2023-06-18T20:24:40.793Z,20.90
2023-06-18T20:27:08.661Z,20.90
2023-06-18T20:29:35.857Z,20.89
2023-06-18T20:32:03.270Z,20.87
2023-06-18T20:34:30.459Z,20.84
2023-06-18T20:36:57.659Z,20.81
2023-06-18T20:39:25.078Z,20.80
2023-06-18T20:41:52.372Z,20.78
2023-06-18T20:44:19.767Z,20.75
2023-06-18T20:46:46.821Z,20.72
2023-06-18T20:49:15.528Z,20.69
2023-06-18T20:51:43.413Z,20.66
2023-06-18T20:54:10.823Z,20.64
2023-06-18T20:56:38.400Z,20.62
2023-06-18T20:59:05.616Z,20.60
2023-06-18T21:01:32.991Z,20.55
2023-06-18T21:04:00.376Z,20.49
2023-06-18T21:06:27.676Z,20.40
2023-06-18T21:08:55.255Z,20.32
2023-06-18T21:11:23.535Z,20.24
2023-06-18T21:13:51.009Z,20.15
2023-06-18T21:16:18.363Z,20.07
2023-06-18T21:18:45.519Z,20.22
2023-06-18T21:21:12.821Z,21.21
2023-06-18T21:23:39.768Z,22.22
2023-06-18T21:26:06.806Z,22.96
2023-06-18T21:28:33.866Z,23.49
2023-06-18T21:31:01.732Z,23.66
2023-06-18T21:33:29.203Z,23.03
2023-06-18T21:35:56.419Z,22.35
2023-06-18T21:38:23.823Z,21.81
2023-06-18T21:40:51.846Z,21.38
2023-06-18T21:43:18.786Z,21.02
2023-06-18T21:45:47.299Z,20.72
2023-06-18T21:48:15.531Z,20.42
2023-06-18T21:50:42.477Z,20.13
2023-06-18T21:53:09.525Z,20.05
2023-06-18T21:55:36.575Z,20.87
2023-06-18T21:58:03.913Z,21.77
2023-06-18T22:00:31.327Z,22.42
2023-06-18T22:02:58.544Z,22.88
2023-06-18T22:05:26.131Z,23.22
2023-06-18T22:07:53.495Z,23.29
2023-06-18T22:10:20.992Z,22.61
2023-06-18T22:12:48.608Z,21.88
2023-06-18T22:15:15.596Z,21.32
2023-06-18T22:17:42.666Z,20.84
2023-06-18T22:20:10.963Z,20.43
2023-06-18T22:22:38.218Z,20.10
2023-06-18T22:25:06.439Z,19.83
2023-06-18T22:27:33.584Z,19.60
2023-06-18T22:30:01.075Z,19.58
2023-06-18T22:32:28.303Z,20.40
2023-06-18T22:34:55.493Z,21.26
2023-06-18T22:37:22.955Z,21.84
2023-06-18T22:39:50.218Z,22.26
2023-06-18T22:42:17.740Z,22.56
2023-06-18T22:44:44.761Z,22.58
2023-06-18T22:47:12.103Z,21.85
2023-06-18T22:49:39.490Z,21.04
2023-06-18T22:52:07.223Z,20.44
2023-06-18T22:54:34.539Z,20.00
2023-06-18T22:57:01.626Z,19.65
2023-06-18T22:59:28.558Z,19.32
2023-06-18T23:01:56.372Z,19.21
2023-06-18T23:04:23.823Z,20.04
2023-06-18T23:06:51.171Z,20.86
2023-06-18T23:09:18.678Z,21.38
2023-06-18T23:11:46.291Z,21.73
2023-06-18T23:14:14.945Z,22.01
2023-06-18T23:16:42.914Z,22.26
2023-06-18T23:19:10.247Z,22.24
2023-06-18T23:21:46.819Z,21.48
2023-06-18T23:24:16.113Z,20.56
2023-06-18T23:26:43.813Z,19.86
2023-06-18T23:29:11.304Z,19.26
2023-06-18T23:31:40.009Z,18.97
2023-06-18T23:34:08.531Z,19.68
2023-06-18T23:36:36.967Z,20.47
2023-06-18T23:39:05.425Z,21.00
2023-06-18T23:41:32.632Z,21.31
2023-06-18T23:43:59.753Z,21.50
2023-06-18T23:46:27.201Z,21.68
2023-06-18T23:48:54.286Z,21.86
2023-06-18T23:51:22.114Z,22.02
2023-06-18T23:53:49.359Z,21.98
2023-06-18T23:56:16.715Z,21.22
2023-06-18T23:58:43.651Z,20.39
